createdAt,value
2022-10-25T00:00:59.238Z,11.25
2022-10-25T00:02:30.610Z,12.57
2022-10-25T00:04:01.922Z,16.09
2022-10-25T00:05:33.307Z,14.51
2022-10-25T00:07:04.728Z,10.97
2022-10-25T00:08:36.323Z,12.36
2022-10-25T00:10:08.048Z,10.13
2022-10-25T00:11:39.328Z,13.76
2022-10-25T00:13:10.779Z,12.32
2022-10-25T00:14:43.152Z,11.43
2022-10-25T00:16:14.492Z,10.66
2022-10-25T00:17:46.412Z,12.64
2022-10-25T00:19:18.691Z,10.28
2022-10-25T00:20:50.112Z,14.36
2022-10-25T00:22:21.608Z,11.58
2022-10-25T00:23:52.894Z,12.62
2022-10-25T00:25:24.216Z,11.84
2022-10-25T00:26:55.474Z,8.86
2022-10-25T00:28:26.842Z,11.96
2022-10-25T00:30:03.173Z,9.77
2022-10-25T00:31:34.672Z,10.65
2022-10-25T00:33:06.100Z,10.83
2022-10-25T00:34:37.466Z,13.29
2022-10-25T00:36:08.727Z,12.39
2022-10-25T00:37:40.236Z,13.45
2022-10-25T00:39:11.548Z,12.93
2022-10-25T00:40:42.927Z,10.83
2022-10-25T00:42:14.222Z,10.73
2022-10-25T00:43:45.645Z,10.62
2022-10-25T00:45:17.126Z,10.48
2022-10-25T00:46:48.497Z,12.22
2022-10-25T00:48:20.111Z,11.71
2022-10-25T00:50:07.043Z,9.92
2022-10-25T00:51:38.804Z,7.88
2022-10-25T00:53:10.297Z,10.17
2022-10-25T00:54:41.855Z,8.84
2022-10-25T00:56:13.265Z,10.21
2022-10-25T00:57:45.034Z,9.46
2022-10-25T00:59:16.745Z,8.96
2022-10-25T01:00:48.720Z,12.31
2022-10-25T01:02:20.243Z,12.75
2022-10-25T01:03:51.866Z,9.19
2022-10-25T01:05:23.252Z,8.37
2022-10-25T01:06:54.872Z,9.52
2022-10-25T01:08:26.126Z,8.11
2022-10-25T01:09:57.413Z,9.66
2022-10-25T01:11:28.789Z,10.22
2022-10-25T01:13:00.243Z,8.47
2022-10-25T01:14:31.763Z,8.24
2022-10-25T01:16:03.303Z,9.56
2022-10-25T01:17:34.619Z,10.71
2022-10-25T01:19:06.081Z,10.31
2022-10-25T01:20:37.584Z,9.56
2022-10-25T01:22:09.052Z,8.72
2022-10-25T01:23:40.757Z,8.22
2022-10-25T01:25:12.296Z,9.38
2022-10-25T01:26:43.607Z,11.36
2022-10-25T01:28:15.270Z,12.50
2022-10-25T01:29:46.876Z,10.88
2022-10-25T01:31:18.400Z,11.08
2022-10-25T01:32:49.831Z,10.58
2022-10-25T01:34:21.307Z,12.00
2022-10-25T01:35:52.772Z,9.17
2022-10-25T01:37:24.214Z,10.91
2022-10-25T01:38:55.613Z,10.74
2022-10-25T01:40:27.305Z,9.54
2022-10-25T01:41:58.772Z,11.67
2022-10-25T01:43:30.332Z,11.70
2022-10-25T01:45:01.867Z,8.49
2022-10-25T01:46:33.577Z,12.41
2022-10-25T01:48:04.845Z,8.60
2022-10-25T01:49:36.248Z,8.97
2022-10-25T01:51:07.637Z,9.88
2022-10-25T01:52:39.213Z,10.19
2022-10-25T01:54:10.876Z,7.93
2022-10-25T01:55:42.260Z,8.66
2022-10-25T01:57:13.712Z,9.11
2022-10-25T01:58:45.121Z,8.79
2022-10-25T02:00:16.698Z,9.01
2022-10-25T02:01:48.076Z,9.90
2022-10-25T02:03:19.945Z,9.01
2022-10-25T02:04:51.231Z,9.28
2022-10-25T02:06:22.859Z,10.94
2022-10-25T02:07:54.177Z,9.23
2022-10-25T02:09:25.636Z,10.26
2022-10-25T02:10:57.645Z,9.14
2022-10-25T02:12:29.049Z,8.51
2022-10-25T02:14:00.499Z,9.17
2022-10-25T02:15:31.871Z,9.02
2022-10-25T02:17:03.422Z,8.53
2022-10-25T02:18:34.736Z,9.11
2022-10-25T02:20:06.166Z,9.52
2022-10-25T02:21:37.597Z,7.80
2022-10-25T02:23:09.394Z,7.38
2022-10-25T02:24:40.967Z,9.84
2022-10-25T02:26:12.509Z,11.65
2022-10-25T02:27:44.706Z,9.08
2022-10-25T02:29:16.484Z,7.04
2022-10-25T02:30:48.328Z,10.85
2022-10-25T02:32:20.149Z,8.56
2022-10-25T02:33:51.543Z,10.14
2022-10-25T02:35:23.257Z,9.57
2022-10-25T02:36:54.861Z,7.63
2022-10-25T02:38:26.337Z,10.29
2022-10-25T02:39:57.723Z,11.83
2022-10-25T02:45:24.701Z,11.87
2022-10-25T02:46:56.464Z,9.02
2022-10-25T02:48:27.727Z,11.24
2022-10-25T02:49:59.373Z,10.39
2022-10-25T02:51:30.923Z,9.72
2022-10-25T02:53:02.368Z,11.14
2022-10-25T02:54:33.885Z,9.83
2022-10-25T02:56:05.865Z,9.69
2022-10-25T02:57:37.322Z,9.40
2022-10-25T02:59:09.094Z,8.39
2022-10-25T03:00:40.565Z,13.65
2022-10-25T03:02:11.895Z,9.08
2022-10-25T03:03:43.371Z,8.91
2022-10-25T03:05:14.877Z,9.76
2022-10-25T03:06:47.266Z,12.50
2022-10-25T03:08:18.775Z,10.90
2022-10-25T03:09:50.268Z,9.88
2022-10-25T03:11:22.534Z,9.25
2022-10-25T03:12:53.993Z,8.71
2022-10-25T03:14:25.630Z,7.68
2022-10-25T03:15:57.008Z,9.19
2022-10-25T03:17:28.285Z,10.13
2022-10-25T03:18:59.772Z,9.95
2022-10-25T03:20:31.027Z,8.65
2022-10-25T03:22:02.505Z,9.70
2022-10-25T03:23:34.106Z,9.36
2022-10-25T03:25:05.686Z,10.45
2022-10-25T03:26:38.194Z,8.89
2022-10-25T03:28:09.679Z,6.92
2022-10-25T03:29:41.270Z,10.40
2022-10-25T03:31:12.653Z,11.31
2022-10-25T03:32:44.225Z,10.92
2022-10-25T03:34:15.605Z,11.02
2022-10-25T03:35:47.153Z,8.92
2022-10-25T03:37:18.561Z,9.64
2022-10-25T03:38:49.842Z,10.26
2022-10-25T03:40:21.227Z,12.73
2022-10-25T03:41:52.598Z,8.84
2022-10-25T03:44:55.541Z,9.95
2022-10-25T03:46:26.969Z,10.94
2022-10-25T03:47:58.506Z,11.63
2022-10-25T03:49:30.123Z,13.46
2022-10-25T03:51:01.772Z,12.77
2022-10-25T03:52:33.525Z,11.75
2022-10-25T03:54:04.772Z,10.74
2022-10-25T03:55:36.393Z,11.38
2022-10-25T03:57:07.755Z,8.79
2022-10-25T03:58:39.278Z,8.98
2022-10-25T04:00:10.774Z,10.07
2022-10-25T04:01:42.519Z,11.83
2022-10-25T04:03:14.185Z,11.27
2022-10-25T04:04:45.612Z,10.73
2022-10-25T04:06:17.078Z,9.55
2022-10-25T04:07:48.814Z,8.66
2022-10-25T04:09:20.600Z,9.70
2022-10-25T04:10:56.921Z,8.45
2022-10-25T04:12:28.686Z,11.21
2022-10-25T04:14:00.137Z,10.75
2022-10-25T04:15:31.741Z,7.92
2022-10-25T04:17:03.143Z,9.83
2022-10-25T04:18:34.425Z,10.66
2022-10-25T04:20:06.116Z,10.27
2022-10-25T04:21:37.557Z,8.11
2022-10-25T04:23:09.126Z,7.74
2022-10-25T04:24:40.701Z,8.83
2022-10-25T04:26:12.069Z,8.24
2022-10-25T04:27:43.752Z,8.42
2022-10-25T04:29:15.471Z,9.18
2022-10-25T04:30:47.088Z,9.89
2022-10-25T04:33:50.935Z,12.08
2022-10-25T04:35:22.484Z,10.77
2022-10-25T04:36:54.028Z,11.00
2022-10-25T04:38:25.449Z,10.69
2022-10-25T04:39:57.077Z,10.55
2022-10-25T04:41:28.555Z,9.95
2022-10-25T04:42:59.838Z,10.04
2022-10-25T04:44:31.879Z,11.86
2022-10-25T04:48:01.945Z,10.11
2022-10-25T04:49:33.250Z,9.98
2022-10-25T04:51:04.508Z,7.29
2022-10-25T04:52:35.883Z,8.17
2022-10-25T04:54:07.250Z,7.12
2022-10-25T04:55:38.854Z,8.75
2022-10-25T04:57:10.257Z,10.15
2022-10-25T04:58:41.843Z,11.32
2022-10-25T05:00:13.718Z,11.26
2022-10-25T05:01:45.438Z,12.22
2022-10-25T05:03:17.130Z,9.45
2022-10-25T05:04:48.656Z,12.45
2022-10-25T05:06:20.136Z,10.18
2022-10-25T05:07:51.701Z,7.86
2022-10-25T05:09:23.101Z,9.30
2022-10-25T05:10:54.883Z,8.56
2022-10-25T05:12:26.187Z,9.66
2022-10-25T05:13:57.777Z,7.82
2022-10-25T05:15:29.172Z,8.89
2022-10-25T05:17:00.733Z,9.08
2022-10-25T05:18:32.110Z,11.48
2022-10-25T05:20:04.671Z,10.81
2022-10-25T05:21:36.229Z,7.99
2022-10-25T05:23:07.966Z,7.70
2022-10-25T05:24:39.307Z,6.06
2022-10-25T05:26:11.556Z,9.33
2022-10-25T05:27:43.438Z,10.62
2022-10-25T05:29:14.908Z,9.03
2022-10-25T05:30:46.309Z,6.93
2022-10-25T05:32:18.215Z,8.36
2022-10-25T05:33:49.597Z,8.51
2022-10-25T05:35:21.162Z,7.49
2022-10-25T05:36:52.672Z,11.86
2022-10-25T05:38:24.067Z,10.33
2022-10-25T05:39:55.428Z,7.91
2022-10-25T05:41:26.951Z,8.29
2022-10-25T05:42:58.340Z,8.41
2022-10-25T05:44:29.700Z,11.34
2022-10-25T05:46:03.860Z,11.89
2022-10-25T05:47:35.529Z,11.10
2022-10-25T05:49:06.844Z,9.68
2022-10-25T05:50:38.412Z,9.98
2022-10-25T05:52:09.941Z,10.43
2022-10-25T05:53:41.854Z,11.09
2022-10-25T05:55:13.307Z,11.66
2022-10-25T05:56:44.865Z,9.98
2022-10-25T05:58:16.951Z,10.67
2022-10-25T05:59:48.749Z,10.34
2022-10-25T06:01:20.353Z,10.34
2022-10-25T06:02:51.707Z,8.19
2022-10-25T06:04:23.237Z,7.68
2022-10-25T06:05:54.698Z,11.09
2022-10-25T06:07:26.064Z,7.26
2022-10-25T06:08:57.382Z,9.08
2022-10-25T06:10:28.825Z,11.83
2022-10-25T06:12:00.560Z,9.40
2022-10-25T06:13:32.105Z,6.06
2022-10-25T06:15:03.417Z,9.38
2022-10-25T06:16:34.807Z,10.87
2022-10-25T06:18:06.127Z,8.30
2022-10-25T06:19:38.349Z,7.17
2022-10-25T06:21:09.757Z,5.53
2022-10-25T06:22:41.182Z,8.36
2022-10-25T06:24:12.740Z,7.48
2022-10-25T06:25:44.355Z,10.16
2022-10-25T06:27:16.083Z,9.91
2022-10-25T06:28:47.711Z,9.52
2022-10-25T06:30:19.256Z,9.52
2022-10-25T06:31:51.068Z,7.63
2022-10-25T06:33:25.757Z,7.02
2022-10-25T06:34:59.632Z,10.80
2022-10-25T06:36:31.311Z,9.92
2022-10-25T06:38:03.103Z,6.94
2022-10-25T06:39:34.551Z,9.89
2022-10-25T06:41:05.980Z,9.29
2022-10-25T06:42:37.333Z,10.62
2022-10-25T06:44:08.785Z,8.49
2022-10-25T06:45:40.114Z,8.33
2022-10-25T06:47:17.423Z,10.19
2022-10-25T06:48:49.209Z,10.54
2022-10-25T06:50:20.916Z,9.71
2022-10-25T06:51:52.479Z,14.60
2022-10-25T06:53:23.800Z,12.30
2022-10-25T06:54:55.298Z,11.35
2022-10-25T06:56:26.744Z,15.31
2022-10-25T06:57:58.131Z,12.14
2022-10-25T06:59:29.517Z,10.53
2022-10-25T07:01:00.969Z,13.68
2022-10-25T07:02:33.725Z,10.13
2022-10-25T07:04:05.143Z,11.35
2022-10-25T07:05:37.202Z,11.57
2022-10-25T07:07:08.562Z,11.64
2022-10-25T07:08:39.983Z,9.77
2022-10-25T07:10:11.466Z,10.57
2022-10-25T07:11:42.790Z,16.55
2022-10-25T07:13:14.201Z,13.23
2022-10-25T07:14:45.556Z,11.41
2022-10-25T07:16:17.140Z,15.03
2022-10-25T07:17:48.899Z,13.81
2022-10-25T07:19:20.487Z,14.08
2022-10-25T07:20:51.844Z,12.84
2022-10-25T07:22:23.294Z,13.64
2022-10-25T07:23:54.590Z,13.11
2022-10-25T07:25:26.108Z,13.10
2022-10-25T07:26:57.489Z,9.91
2022-10-25T07:28:28.839Z,12.03
2022-10-25T07:30:00.513Z,10.37
2022-10-25T07:31:31.836Z,10.69
2022-10-25T07:33:03.162Z,10.93
2022-10-25T07:34:34.788Z,11.08
2022-10-25T07:36:10.737Z,10.43
2022-10-25T07:37:43.063Z,8.66
2022-10-25T07:39:14.413Z,13.39
2022-10-25T07:40:46.120Z,12.42
2022-10-25T07:42:17.936Z,9.91
2022-10-25T07:43:49.796Z,10.62
2022-10-25T07:45:23.653Z,8.20
2022-10-25T07:46:56.811Z,8.27
2022-10-25T07:48:28.133Z,11.87
2022-10-25T07:49:59.691Z,8.06
2022-10-25T07:51:32.333Z,10.10
2022-10-25T07:53:03.791Z,12.17
2022-10-25T07:54:35.270Z,9.73
2022-10-25T07:56:06.958Z,9.15
2022-10-25T07:57:38.283Z,10.35
2022-10-25T07:59:09.647Z,9.51
2022-10-25T08:00:41.339Z,9.65
2022-10-25T08:02:12.873Z,6.69
2022-10-25T08:03:44.343Z,8.13
2022-10-25T08:05:15.925Z,11.94
2022-10-25T08:06:47.339Z,8.73
2022-10-25T08:08:19.038Z,9.93
2022-10-25T08:09:50.497Z,11.41
2022-10-25T08:11:21.794Z,8.95
2022-10-25T08:12:53.199Z,7.82
2022-10-25T08:14:24.812Z,10.44
2022-10-25T08:15:56.383Z,8.64
2022-10-25T08:17:27.734Z,10.32
2022-10-25T08:18:59.253Z,11.25
2022-10-25T08:20:43.433Z,9.39
2022-10-25T08:22:28.224Z,8.24
2022-10-25T08:23:59.892Z,9.96
2022-10-25T08:25:31.169Z,8.44
2022-10-25T08:27:02.631Z,6.51
2022-10-25T08:28:33.975Z,8.02
2022-10-25T08:30:05.331Z,6.78
2022-10-25T08:31:36.999Z,12.33
2022-10-25T08:33:11.592Z,10.70
2022-10-25T08:34:43.505Z,10.20
2022-10-25T08:36:14.846Z,7.62
2022-10-25T08:37:46.548Z,10.24
2022-10-25T08:39:18.080Z,8.63
2022-10-25T08:40:49.734Z,11.11
2022-10-25T08:42:21.188Z,11.30
2022-10-25T08:43:52.579Z,10.42
2022-10-25T08:45:23.900Z,11.34
2022-10-25T08:46:55.579Z,8.81
2022-10-25T08:48:26.881Z,8.25
2022-10-25T08:49:58.326Z,8.74
2022-10-25T08:51:31.044Z,11.09
2022-10-25T08:53:02.542Z,7.97
2022-10-25T08:54:34.018Z,8.40
2022-10-25T08:56:16.041Z,9.75
2022-10-25T08:57:48.786Z,10.94
2022-10-25T08:59:20.561Z,10.32
2022-10-25T09:00:52.558Z,8.60
2022-10-25T09:02:24.357Z,10.27
2022-10-25T09:03:56.631Z,11.09
2022-10-25T09:05:28.082Z,9.81
2022-10-25T09:06:59.656Z,11.40
2022-10-25T09:08:31.306Z,7.47
2022-10-25T09:10:02.823Z,6.85
2022-10-25T09:11:34.258Z,9.07
2022-10-25T09:13:11.341Z,10.20
2022-10-25T09:14:42.919Z,6.57
2022-10-25T09:16:14.791Z,7.40
2022-10-25T09:17:46.497Z,7.99
2022-10-25T09:19:18.153Z,10.00
2022-10-25T09:20:49.928Z,8.66
2022-10-25T09:22:21.405Z,6.52
2022-10-25T09:23:53.096Z,8.38
2022-10-25T09:25:24.665Z,7.90
2022-10-25T09:26:56.188Z,5.45
2022-10-25T09:28:27.684Z,7.33
2022-10-25T09:30:01.328Z,9.30
2022-10-25T09:31:35.166Z,7.80
2022-10-25T09:33:06.634Z,8.79
2022-10-25T09:34:37.990Z,7.51
2022-10-25T09:36:09.682Z,7.92
2022-10-25T09:37:41.146Z,9.30
2022-10-25T09:39:15.683Z,6.86
2022-10-25T09:40:48.076Z,6.53
2022-10-25T09:42:24.677Z,5.77
2022-10-25T09:43:56.074Z,8.12
2022-10-25T09:45:27.638Z,6.70
2022-10-25T09:46:59.215Z,5.05
2022-10-25T09:48:31.242Z,7.36
2022-10-25T09:50:03.368Z,7.27
2022-10-25T09:51:35.078Z,9.22
2022-10-25T09:53:06.484Z,9.34
2022-10-25T09:54:38.073Z,10.32
2022-10-25T09:56:09.626Z,10.74
2022-10-25T09:57:41.025Z,6.75
2022-10-25T09:59:12.754Z,7.34
2022-10-25T10:00:44.157Z,6.28
2022-10-25T10:02:15.865Z,6.24
2022-10-25T10:03:52.287Z,8.81
2022-10-25T10:05:26.429Z,6.90
2022-10-25T10:06:57.900Z,7.98
2022-10-25T10:08:29.431Z,8.00
2022-10-25T10:10:00.756Z,7.53
2022-10-25T10:11:32.157Z,7.30
2022-10-25T10:13:03.730Z,8.90
2022-10-25T10:14:35.135Z,6.79
2022-10-25T10:16:06.461Z,10.32
2022-10-25T10:17:38.127Z,8.42
2022-10-25T10:19:09.561Z,8.87
2022-10-25T10:20:41.047Z,8.25
2022-10-25T10:22:12.422Z,10.46
2022-10-25T10:23:43.949Z,7.30
2022-10-25T10:25:15.370Z,8.84
2022-10-25T10:26:46.811Z,6.44
2022-10-25T10:28:23.207Z,7.69
2022-10-25T10:30:13.211Z,9.30
2022-10-25T10:31:50.703Z,9.10
2022-10-25T10:33:40.873Z,7.97
2022-10-25T10:35:24.623Z,8.45
2022-10-25T10:36:56.033Z,7.83
2022-10-25T10:38:27.577Z,6.39
2022-10-25T10:39:59.146Z,7.99
2022-10-25T10:41:30.670Z,7.44
2022-10-25T10:43:02.001Z,8.18
2022-10-25T10:44:33.374Z,6.41
2022-10-25T10:46:04.891Z,6.46
2022-10-25T10:47:36.433Z,7.27
2022-10-25T10:49:07.953Z,9.30
2022-10-25T10:50:41.547Z,7.94
2022-10-25T10:52:16.406Z,7.12
2022-10-25T10:53:47.907Z,6.54
2022-10-25T10:55:19.333Z,8.79
2022-10-25T10:56:50.855Z,7.92
2022-10-25T10:58:22.210Z,6.61
2022-10-25T10:59:53.810Z,8.49
2022-10-25T11:01:25.433Z,9.65
2022-10-25T11:04:30.007Z,6.72
2022-10-25T11:06:01.475Z,7.52
2022-10-25T11:07:32.953Z,8.48
2022-10-25T11:09:04.302Z,6.38
2022-10-25T11:10:36.050Z,8.10
2022-10-25T11:12:07.487Z,7.81
2022-10-25T11:13:38.936Z,6.86
2022-10-25T11:15:10.300Z,6.82
2022-10-25T11:16:41.821Z,8.84
2022-10-25T11:18:13.305Z,5.90
2022-10-25T11:19:44.707Z,4.97
2022-10-25T11:21:16.059Z,6.56
2022-10-25T11:22:48.627Z,7.74
2022-10-25T11:24:20.091Z,7.48
2022-10-25T11:25:51.543Z,8.58
2022-10-25T11:27:23.038Z,7.01
2022-10-25T11:28:54.454Z,9.33
2022-10-25T11:30:25.830Z,7.87
2022-10-25T11:31:57.257Z,7.20
2022-10-25T11:33:28.650Z,9.05
2022-10-25T11:35:00.947Z,7.45
2022-10-25T11:36:32.536Z,9.69
2022-10-25T11:38:03.853Z,10.06
2022-10-25T11:39:35.248Z,8.92
2022-10-25T11:41:06.861Z,7.68
2022-10-25T11:42:38.349Z,8.31
2022-10-25T11:44:09.809Z,6.98
2022-10-25T11:45:41.356Z,11.15
2022-10-25T11:47:13.256Z,5.99
2022-10-25T11:48:44.658Z,8.70
2022-10-25T11:50:16.341Z,6.67
2022-10-25T11:51:48.118Z,6.05
2022-10-25T11:53:19.621Z,7.36
2022-10-25T11:54:51.122Z,6.96
2022-10-25T11:56:22.842Z,9.14
2022-10-25T11:57:54.295Z,7.01
2022-10-25T11:59:25.645Z,5.18
2022-10-25T12:00:57.109Z,5.75
2022-10-25T12:02:38.635Z,5.96
2022-10-25T12:04:10.151Z,7.81
2022-10-25T12:05:46.838Z,6.27
2022-10-25T12:07:18.352Z,7.58
2022-10-25T12:08:49.816Z,6.23
2022-10-25T12:10:21.286Z,6.72
2022-10-25T12:11:52.764Z,6.70
2022-10-25T12:13:24.342Z,6.54
2022-10-25T12:14:56.022Z,7.40
2022-10-25T12:16:27.573Z,6.85
2022-10-25T12:17:59.074Z,6.45
2022-10-25T12:19:30.591Z,4.51
2022-10-25T12:21:02.294Z,4.55
2022-10-25T12:22:33.940Z,5.74
2022-10-25T12:24:05.311Z,7.22
2022-10-25T12:25:36.749Z,4.64
2022-10-25T12:27:08.204Z,7.38
2022-10-25T12:28:39.691Z,6.23
2022-10-25T12:30:11.623Z,6.05
2022-10-25T12:31:43.359Z,5.40
2022-10-25T12:33:15.042Z,5.37
2022-10-25T12:34:47.752Z,7.40
2022-10-25T12:36:19.142Z,5.22
2022-10-25T12:37:52.802Z,4.18
2022-10-25T12:39:25.200Z,6.38
2022-10-25T12:40:56.807Z,5.36
2022-10-25T12:42:28.323Z,5.63
2022-10-25T12:43:59.718Z,3.89
2022-10-25T12:45:31.309Z,5.45
2022-10-25T12:47:02.716Z,3.42
2022-10-25T12:48:34.196Z,4.64
2022-10-25T12:50:06.278Z,5.73
2022-10-25T12:51:42.860Z,6.28
2022-10-25T12:53:14.208Z,6.56
2022-10-25T12:54:45.686Z,5.53
2022-10-25T12:56:17.051Z,5.63
2022-10-25T12:57:48.592Z,4.99
2022-10-25T12:59:20.588Z,7.73
2022-10-25T13:00:52.040Z,6.24
2022-10-25T13:02:23.686Z,5.53
2022-10-25T13:03:55.326Z,5.70
2022-10-25T13:05:26.739Z,4.59
2022-10-25T13:06:58.305Z,5.32
2022-10-25T13:08:29.906Z,6.62
2022-10-25T13:10:01.290Z,6.13
2022-10-25T13:11:32.767Z,5.76
2022-10-25T13:13:04.234Z,6.22
2022-10-25T13:14:45.748Z,6.42
2022-10-25T13:16:17.152Z,5.95
2022-10-25T13:17:48.677Z,5.24
2022-10-25T13:19:30.457Z,7.14
2022-10-25T13:21:07.899Z,6.12
2022-10-25T13:22:39.722Z,7.47
2022-10-25T13:24:11.398Z,6.38
2022-10-25T13:25:42.829Z,7.09
2022-10-25T13:27:14.391Z,6.09
2022-10-25T13:28:45.856Z,5.84
2022-10-25T13:31:50.616Z,7.41
2022-10-25T13:33:22.010Z,7.98
2022-10-25T13:34:53.571Z,8.44
2022-10-25T13:36:25.069Z,7.79
2022-10-25T13:37:56.832Z,7.57
2022-10-25T13:39:28.358Z,8.94
2022-10-25T13:41:00.009Z,7.78
2022-10-25T13:42:31.447Z,8.54
2022-10-25T13:44:02.875Z,4.70
2022-10-25T13:45:34.540Z,6.40
2022-10-25T13:47:06.513Z,8.82
2022-10-25T13:48:38.623Z,5.25
2022-10-25T13:50:10.090Z,5.83
2022-10-25T13:51:41.950Z,5.60
2022-10-25T13:53:13.728Z,7.97
2022-10-25T13:54:45.506Z,7.94
2022-10-25T13:56:16.957Z,8.59
2022-10-25T13:57:48.486Z,6.15
2022-10-25T13:59:20.453Z,6.24
2022-10-25T14:00:53.674Z,6.42
2022-10-25T14:02:27.356Z,8.13
2022-10-25T14:03:59.062Z,6.37
2022-10-25T14:05:30.693Z,6.93
2022-10-25T14:07:02.117Z,8.22
2022-10-25T14:08:33.999Z,7.75
2022-10-25T14:10:05.910Z,6.28
2022-10-25T14:11:37.733Z,6.16
2022-10-25T14:13:09.388Z,7.30
2022-10-25T14:14:41.285Z,7.24
2022-10-25T14:16:12.817Z,8.50
2022-10-25T14:17:44.557Z,7.46
2022-10-25T14:19:16.074Z,8.94
2022-10-25T14:20:50.410Z,8.10
2022-10-25T14:22:21.751Z,8.26
2022-10-25T14:23:53.264Z,9.05
2022-10-25T14:25:24.698Z,9.42
2022-10-25T14:26:56.140Z,10.65
2022-10-25T14:28:27.637Z,7.46
2022-10-25T14:29:59.009Z,7.91
2022-10-25T14:31:35.536Z,7.66
2022-10-25T14:33:06.949Z,7.93
2022-10-25T14:34:38.319Z,11.18
2022-10-25T14:36:19.959Z,9.32
2022-10-25T14:37:51.402Z,9.87
2022-10-25T14:39:33.013Z,5.62
2022-10-25T14:41:04.675Z,7.78
2022-10-25T14:42:41.228Z,5.75
2022-10-25T14:44:17.709Z,8.27
2022-10-25T14:45:49.279Z,7.02
2022-10-25T14:47:21.083Z,8.34
2022-10-25T14:48:52.569Z,7.73
2022-10-25T14:50:24.129Z,8.47
2022-10-25T14:51:55.864Z,8.50
2022-10-25T14:53:27.310Z,6.83
2022-10-25T14:54:58.843Z,8.33
2022-10-25T14:56:30.364Z,9.43
2022-10-25T14:58:01.887Z,9.33
2022-10-25T14:59:33.317Z,7.44
2022-10-25T15:01:04.945Z,6.21
2022-10-25T15:02:36.578Z,7.18
2022-10-25T15:04:07.906Z,6.84
2022-10-25T15:05:39.474Z,6.64
2022-10-25T15:07:11.571Z,8.43
2022-10-25T15:08:44.306Z,8.33
2022-10-25T15:10:18.170Z,10.16
2022-10-25T15:11:49.603Z,8.25
2022-10-25T15:13:21.125Z,11.04
2022-10-25T15:14:52.577Z,8.05
2022-10-25T15:16:43.877Z,7.98
2022-10-25T15:18:15.404Z,6.83
2022-10-25T15:19:46.808Z,6.96
2022-10-25T15:21:18.202Z,7.42
2022-10-25T15:22:50.189Z,7.07
2022-10-25T15:24:22.070Z,6.24
2022-10-25T15:25:53.453Z,7.78
2022-10-25T15:27:25.336Z,6.62
2022-10-25T15:28:56.895Z,7.62
2022-10-25T15:30:28.354Z,9.20
2022-10-25T15:31:59.941Z,7.16
2022-10-25T15:33:31.432Z,9.25
2022-10-25T15:35:02.863Z,13.25
2022-10-25T15:36:34.496Z,8.66
2022-10-25T15:38:06.085Z,7.36
2022-10-25T15:39:37.767Z,7.35
2022-10-25T15:41:29.242Z,8.18
2022-10-25T15:43:07.401Z,9.31
2022-10-25T15:44:39.006Z,14.81
2022-10-25T15:46:10.527Z,11.13
2022-10-25T15:47:41.922Z,12.21
2022-10-25T15:49:13.490Z,10.81
2022-10-25T15:50:44.899Z,10.29
2022-10-25T15:52:16.239Z,10.14
2022-10-25T15:53:57.859Z,7.74
2022-10-25T15:55:29.276Z,10.04
2022-10-25T15:57:00.851Z,10.37
2022-10-25T15:58:32.275Z,9.91
2022-10-25T16:00:03.587Z,8.54
2022-10-25T16:01:35.119Z,8.83
2022-10-25T16:03:06.693Z,6.85
2022-10-25T16:04:53.105Z,9.41
2022-10-25T16:06:37.387Z,9.81
2022-10-25T16:08:19.945Z,8.60
2022-10-25T16:09:53.799Z,11.01
2022-10-25T16:11:32.193Z,6.79
2022-10-25T16:13:06.077Z,7.84
2022-10-25T16:14:39.736Z,7.97
2022-10-25T16:16:40.685Z,8.54
2022-10-25T16:18:13.126Z,8.34
2022-10-25T16:19:44.708Z,8.17
2022-10-25T16:21:16.090Z,7.95
2022-10-25T16:22:47.777Z,9.79
2022-10-25T16:24:19.326Z,8.92
2022-10-25T16:25:50.991Z,8.95
2022-10-25T16:27:22.355Z,6.76
2022-10-25T16:28:54.095Z,7.93
2022-10-25T16:30:26.270Z,8.93
2022-10-25T16:31:58.422Z,8.92
2022-10-25T16:33:30.255Z,7.32
2022-10-25T16:35:01.899Z,5.35
2022-10-25T16:36:33.306Z,8.11
2022-10-25T16:38:05.065Z,8.83
2022-10-25T16:39:36.438Z,9.39
2022-10-25T16:41:08.258Z,11.61
2022-10-25T16:42:39.775Z,8.46
2022-10-25T16:44:11.199Z,9.11
2022-10-25T16:45:42.613Z,7.33
2022-10-25T16:47:26.885Z,7.67
2022-10-25T16:49:01.108Z,6.35
2022-10-25T16:50:33.584Z,8.41
2022-10-25T16:52:04.895Z,8.46
2022-10-25T16:53:36.342Z,7.85
2022-10-25T16:55:07.810Z,7.19
2022-10-25T16:56:39.405Z,6.65
2022-10-25T16:58:10.962Z,7.28
2022-10-25T16:59:42.297Z,8.79
2022-10-25T17:01:13.832Z,7.66
2022-10-25T17:03:08.188Z,6.52
2022-10-25T17:04:41.315Z,8.31
2022-10-25T17:08:07.879Z,6.79
2022-10-25T17:09:39.838Z,6.17
2022-10-25T17:11:16.664Z,6.25
2022-10-25T17:12:48.614Z,8.15
2022-10-25T17:14:20.470Z,6.36
2022-10-25T17:15:51.840Z,8.73
2022-10-25T17:18:59.865Z,6.64
2022-10-25T17:21:06.154Z,8.96
2022-10-25T17:22:37.561Z,6.28
2022-10-25T17:24:09.963Z,7.54
2022-10-25T17:25:46.560Z,6.55
2022-10-25T17:27:18.258Z,6.23
2022-10-25T17:28:50.556Z,8.68
2022-10-25T17:30:22.251Z,9.26
2022-10-25T17:31:53.695Z,7.94
2022-10-25T17:33:30.121Z,8.14
2022-10-25T17:35:01.549Z,9.58
2022-10-25T17:36:33.335Z,11.85
2022-10-25T17:38:14.830Z,8.79
2022-10-25T17:39:57.599Z,8.77
2022-10-25T17:41:28.923Z,8.40
2022-10-25T17:43:00.234Z,10.41
2022-10-25T17:44:31.555Z,9.45
2022-10-25T17:46:03.222Z,9.94
2022-10-25T17:47:34.553Z,8.23
2022-10-25T17:49:06.188Z,8.34
2022-10-25T17:50:37.963Z,8.64
2022-10-25T17:52:09.965Z,10.75
2022-10-25T17:53:41.680Z,7.35
2022-10-25T17:55:13.088Z,8.86
2022-10-25T17:56:44.402Z,8.75
2022-10-25T17:58:15.800Z,9.82
2022-10-25T17:59:57.244Z,10.69
2022-10-25T18:01:34.034Z,39.39
2022-10-25T18:03:05.637Z,58.91
2022-10-25T18:04:53.402Z,28.98
2022-10-25T18:06:38.537Z,16.29
2022-10-25T18:08:09.982Z,12.94
2022-10-25T18:09:41.533Z,15.14
2022-10-25T18:11:12.903Z,13.55
2022-10-25T18:12:46.063Z,14.43
2022-10-25T18:14:17.898Z,15.09
2022-10-25T18:15:49.444Z,10.97
2022-10-25T18:17:20.816Z,10.50
2022-10-25T18:18:52.140Z,11.30
2022-10-25T18:20:23.442Z,11.33
2022-10-25T18:21:54.835Z,7.86
2022-10-25T18:23:26.744Z,11.82
2022-10-25T18:25:03.214Z,11.38
2022-10-25T18:26:34.567Z,14.16
2022-10-25T18:28:06.039Z,12.88
2022-10-25T18:29:37.461Z,12.02
2022-10-25T18:31:25.111Z,12.89
2022-10-25T18:32:56.543Z,13.06
2022-10-25T18:34:28.013Z,12.44
2022-10-25T18:36:04.730Z,11.95
2022-10-25T18:37:36.020Z,10.17
2022-10-25T18:39:07.427Z,12.09
2022-10-25T18:40:38.717Z,13.56
2022-10-25T18:42:10.031Z,10.22
2022-10-25T18:43:41.727Z,9.11
2022-10-25T18:45:23.181Z,12.81
2022-10-25T18:46:54.963Z,14.92
2022-10-25T18:48:26.539Z,13.41
2022-10-25T18:50:03.392Z,9.18
2022-10-25T18:51:35.196Z,12.23
2022-10-25T18:53:06.800Z,10.20
2022-10-25T18:54:55.412Z,13.47
2022-10-25T18:56:26.782Z,11.29
2022-10-25T18:57:59.318Z,11.42
2022-10-25T18:59:52.367Z,13.29
2022-10-25T19:01:29.300Z,13.72
2022-10-25T19:03:10.836Z,9.35
2022-10-25T19:05:01.434Z,12.09
2022-10-25T19:06:33.526Z,9.45
2022-10-25T19:08:04.809Z,9.24
2022-10-25T19:09:36.413Z,10.67
2022-10-25T19:11:08.025Z,11.78
2022-10-25T19:12:39.501Z,9.75
2022-10-25T19:14:10.792Z,11.37
2022-10-25T19:15:52.760Z,10.99
2022-10-25T19:17:44.482Z,11.70
2022-10-25T19:19:37.501Z,10.55
2022-10-25T19:21:30.049Z,13.15
2022-10-25T19:23:03.377Z,10.90
2022-10-25T19:25:12.297Z,12.62
2022-10-25T19:26:44.430Z,9.84
2022-10-25T19:28:16.438Z,14.11
2022-10-25T19:29:49.089Z,12.87
2022-10-25T19:31:20.495Z,10.67
2022-10-25T19:32:57.561Z,17.20
2022-10-25T19:34:29.486Z,11.93
2022-10-25T19:36:06.934Z,10.37
2022-10-25T19:38:27.193Z,11.00
2022-10-25T19:39:59.548Z,12.78
2022-10-25T19:41:31.984Z,13.46
2022-10-25T19:43:14.670Z,11.98
2022-10-25T19:45:17.313Z,12.42
2022-10-25T19:46:48.747Z,9.39
2022-10-25T19:48:20.240Z,10.28
2022-10-25T19:50:34.956Z,9.66
2022-10-25T19:52:06.581Z,11.60
2022-10-25T19:53:42.963Z,13.77
2022-10-25T19:55:25.700Z,13.42
2022-10-25T19:57:18.628Z,11.47
2022-10-25T19:58:55.906Z,13.62
2022-10-25T20:00:37.452Z,15.72
2022-10-25T20:02:18.917Z,13.88
2022-10-25T20:04:11.521Z,11.79
2022-10-25T20:05:43.363Z,10.85
2022-10-25T20:07:43.332Z,10.70
2022-10-25T20:09:14.828Z,12.19
2022-10-25T20:10:46.884Z,15.37
2022-10-25T20:12:18.297Z,13.78
2022-10-25T20:13:49.723Z,17.64
2022-10-25T20:15:21.213Z,16.11
2022-10-25T20:16:52.569Z,12.47
2022-10-25T20:18:23.934Z,14.93
2022-10-25T20:19:56.282Z,17.09
2022-10-25T20:21:27.761Z,11.39
2022-10-25T20:22:59.237Z,11.60
2022-10-25T20:24:30.997Z,12.57
2022-10-25T20:26:02.343Z,15.83
2022-10-25T20:27:33.977Z,16.00
2022-10-25T20:29:05.451Z,14.88
2022-10-25T20:30:46.892Z,16.56
2022-10-25T20:32:18.476Z,19.28
2022-10-25T20:33:49.854Z,17.04
2022-10-25T20:35:23.519Z,13.37
2022-10-25T20:36:57.588Z,16.18